createdAt,value
2022-12-25T00:01:21.904Z,26.00
2022-12-25T00:03:48.866Z,25.90
2022-12-25T00:06:15.562Z,30.70
2022-12-25T00:08:42.448Z,24.10
2022-12-25T00:11:13.243Z,29.50
2022-12-25T00:13:40.595Z,21.70
2022-12-25T00:16:08.903Z,24.40
2022-12-25T00:18:35.643Z,24.10
2022-12-25T00:21:05.494Z,29.90
2022-12-25T00:23:32.953Z,27.60
2022-12-25T00:25:59.365Z,23.80
2022-12-25T00:28:26.080Z,25.90
2022-12-25T00:30:53.048Z,21.80
2022-12-25T00:33:19.564Z,26.60
2022-12-25T00:35:57.668Z,29.00
2022-12-25T00:38:24.189Z,28.80
2022-12-25T00:40:50.666Z,24.70
2022-12-25T00:43:17.312Z,30.90
2022-12-25T00:45:44.061Z,25.80
2022-12-25T00:48:10.509Z,25.20
2022-12-25T00:50:40.049Z,26.30
2022-12-25T00:53:06.501Z,23.40
2022-12-25T00:55:32.879Z,26.50
2022-12-25T00:57:59.246Z,25.10
2022-12-25T01:00:25.670Z,25.30
2022-12-25T01:02:52.293Z,24.10
2022-12-25T01:05:18.811Z,29.00
2022-12-25T01:07:45.182Z,25.30
2022-12-25T01:10:23.694Z,25.00
2022-12-25T01:12:51.344Z,22.20
2022-12-25T01:15:18.695Z,23.00
2022-12-25T01:17:45.475Z,22.70
2022-12-25T01:20:13.944Z,25.60
2022-12-25T01:22:40.444Z,24.40
2022-12-25T01:25:07.449Z,23.20
2022-12-25T01:27:33.807Z,23.20
2022-12-25T01:30:00.632Z,21.20
2022-12-25T01:32:27.165Z,27.70
2022-12-25T01:34:56.190Z,23.80
2022-12-25T01:37:24.664Z,23.90
2022-12-25T01:39:51.421Z,22.80
2022-12-25T01:42:20.412Z,23.00
2022-12-25T01:44:46.822Z,23.10
2022-12-25T01:47:15.174Z,19.50
2022-12-25T01:49:44.199Z,17.80
2022-12-25T01:52:24.775Z,23.60
2022-12-25T01:55:06.235Z,21.00
2022-12-25T01:57:36.609Z,22.80
2022-12-25T02:00:05.993Z,21.80
2022-12-25T02:02:33.210Z,21.10
2022-12-25T02:05:25.048Z,24.70
2022-12-25T02:07:52.823Z,20.20
2022-12-25T02:10:19.357Z,20.80
2022-12-25T02:12:47.621Z,26.10
2022-12-25T02:15:18.897Z,21.50
2022-12-25T02:18:08.967Z,27.70
2022-12-25T02:21:29.712Z,18.10
2022-12-25T02:24:30.852Z,23.40
2022-12-25T02:27:09.337Z,25.30
2022-12-25T02:29:48.018Z,18.30
2022-12-25T02:32:25.765Z,20.70
2022-12-25T02:35:00.834Z,25.60
2022-12-25T02:37:40.165Z,23.30
2022-12-25T02:40:53.154Z,22.30
2022-12-25T02:43:44.865Z,21.10
2022-12-25T02:46:34.551Z,24.00
2022-12-25T02:49:24.476Z,24.80
2022-12-25T02:52:18.236Z,23.50
2022-12-25T02:55:09.524Z,23.20
2022-12-25T02:58:02.169Z,19.80
2022-12-25T03:00:50.221Z,21.90
2022-12-25T03:03:36.925Z,24.50
2022-12-25T03:06:23.585Z,19.20
2022-12-25T03:08:54.732Z,25.80
2022-12-25T03:11:33.480Z,19.50
2022-12-25T03:14:26.788Z,20.30
2022-12-25T03:16:56.408Z,20.60
2022-12-25T03:19:47.046Z,17.90
2022-12-25T03:22:38.124Z,17.50
2022-12-25T03:25:23.824Z,18.40
2022-12-25T03:27:54.923Z,22.40
2022-12-25T03:30:42.625Z,19.20
2022-12-25T03:33:43.827Z,21.00
2022-12-25T03:36:18.263Z,20.60
2022-12-25T03:39:31.685Z,14.20
2022-12-25T03:42:20.679Z,17.10
2022-12-25T03:45:05.073Z,22.30
2022-12-25T03:47:58.325Z,18.20
2022-12-25T03:50:57.122Z,16.80
2022-12-25T03:53:48.793Z,17.80
2022-12-25T03:56:36.950Z,20.20
2022-12-25T03:59:24.012Z,21.10
2022-12-25T04:02:10.626Z,23.60
2022-12-25T04:04:56.543Z,22.30
2022-12-25T04:07:41.787Z,18.20
2022-12-25T04:10:27.373Z,18.60
2022-12-25T04:13:12.627Z,18.50
2022-12-25T04:15:57.797Z,29.10
2022-12-25T04:18:42.948Z,17.70
2022-12-25T04:21:28.339Z,20.00
2022-12-25T04:24:13.555Z,23.70
2022-12-25T04:26:58.640Z,25.60
2022-12-25T04:29:43.579Z,21.70
2022-12-25T04:32:28.804Z,18.90
2022-12-25T04:35:13.640Z,17.70
2022-12-25T04:37:40.101Z,20.70
2022-12-25T04:40:06.962Z,16.20
2022-12-25T04:42:33.489Z,18.30
2022-12-25T04:44:59.878Z,18.50
2022-12-25T04:47:26.524Z,24.90
2022-12-25T04:49:52.973Z,18.70
2022-12-25T04:52:19.427Z,23.90
2022-12-25T04:54:45.831Z,15.20
2022-12-25T04:57:12.455Z,19.90
2022-12-25T04:59:38.939Z,16.60
2022-12-25T05:02:05.592Z,16.00
2022-12-25T05:04:32.228Z,18.80
2022-12-25T05:06:58.666Z,16.30
2022-12-25T05:09:25.970Z,18.20
2022-12-25T05:11:52.753Z,19.40
2022-12-25T05:14:19.200Z,16.90
2022-12-25T05:16:45.649Z,19.80
2022-12-25T05:19:12.064Z,19.30
2022-12-25T05:21:38.478Z,15.00
2022-12-25T05:24:05.202Z,17.40
2022-12-25T05:26:31.601Z,15.30
2022-12-25T05:28:59.259Z,16.40
2022-12-25T05:31:25.693Z,19.60
2022-12-25T05:33:52.699Z,16.90
2022-12-25T05:36:19.246Z,16.30
2022-12-25T05:38:45.744Z,19.10
2022-12-25T05:41:12.324Z,16.80
2022-12-25T05:43:38.735Z,14.00
2022-12-25T05:46:07.849Z,12.60
2022-12-25T05:48:36.626Z,15.60
2022-12-25T05:51:08.118Z,15.00
2022-12-25T05:53:35.141Z,15.20
2022-12-25T05:56:04.079Z,14.30
2022-12-25T05:58:32.111Z,17.30
2022-12-25T06:00:58.768Z,14.50
2022-12-25T06:03:25.914Z,15.20
2022-12-25T06:05:52.847Z,19.30
2022-12-25T06:08:19.411Z,17.10
2022-12-25T06:10:46.355Z,13.90
2022-12-25T06:13:13.145Z,13.30
2022-12-25T06:15:41.159Z,13.90
2022-12-25T06:18:08.261Z,16.70
2022-12-25T06:20:35.182Z,15.50
2022-12-25T06:23:02.051Z,13.70
2022-12-25T06:25:28.517Z,18.50
2022-12-25T06:27:54.979Z,15.00
2022-12-25T06:30:21.833Z,18.80
2022-12-25T06:32:48.304Z,16.80
2022-12-25T06:35:14.746Z,12.00
2022-12-25T06:37:41.241Z,13.80
2022-12-25T06:40:09.158Z,15.40
2022-12-25T06:42:35.631Z,17.40
2022-12-25T06:45:02.057Z,16.60
2022-12-25T06:47:28.464Z,18.90
2022-12-25T06:49:54.916Z,14.10
2022-12-25T06:52:21.353Z,13.90
2022-12-25T06:54:47.806Z,15.70
2022-12-25T06:57:14.364Z,11.40
2022-12-25T06:59:40.788Z,16.20
2022-12-25T07:02:18.983Z,16.60
2022-12-25T07:04:46.515Z,15.60
2022-12-25T07:07:13.450Z,17.30
2022-12-25T07:09:42.338Z,12.90
2022-12-25T07:12:23.183Z,13.70
2022-12-25T07:14:50.301Z,16.40
2022-12-25T07:17:17.678Z,15.30
2022-12-25T07:19:45.380Z,14.50
2022-12-25T07:22:12.676Z,15.10
2022-12-25T07:24:39.211Z,14.60
2022-12-25T07:27:06.257Z,15.80
2022-12-25T07:29:32.665Z,15.50
2022-12-25T07:31:59.316Z,12.80
2022-12-25T07:34:26.025Z,14.90
2022-12-25T07:36:54.873Z,16.40
2022-12-25T07:39:21.293Z,14.90
2022-12-25T07:41:47.766Z,20.10
2022-12-25T07:44:14.565Z,23.00
2022-12-25T07:46:41.112Z,17.50
2022-12-25T07:49:07.648Z,19.30
2022-12-25T07:51:34.148Z,17.10
2022-12-25T07:54:00.721Z,14.70
2022-12-25T07:56:27.444Z,15.30
2022-12-25T07:58:54.235Z,16.00
2022-12-25T08:01:26.806Z,11.80
2022-12-25T08:03:59.642Z,15.60
2022-12-25T08:06:30.352Z,14.10
2022-12-25T08:09:08.612Z,16.70
2022-12-25T08:11:35.951Z,12.60
2022-12-25T08:14:06.546Z,11.50
2022-12-25T08:16:33.119Z,14.20
2022-12-25T08:18:59.801Z,11.90
2022-12-25T08:21:26.327Z,16.50
2022-12-25T08:23:52.925Z,15.10
2022-12-25T08:26:22.079Z,11.50
2022-12-25T08:28:49.309Z,20.00
2022-12-25T08:31:17.521Z,17.00
2022-12-25T08:33:44.804Z,13.60
2022-12-25T08:36:12.446Z,14.40
2022-12-25T08:38:40.133Z,11.60
2022-12-25T08:41:07.490Z,13.50
2022-12-25T08:43:34.214Z,11.90
2022-12-25T08:46:00.932Z,14.30
2022-12-25T08:48:27.506Z,15.20
2022-12-25T08:50:54.313Z,13.10
2022-12-25T08:53:21.793Z,13.90
2022-12-25T08:55:48.577Z,16.00
2022-12-25T08:58:16.340Z,9.50
2022-12-25T09:00:42.976Z,12.00
2022-12-25T09:03:09.428Z,13.90
2022-12-25T09:05:36.823Z,10.30
2022-12-25T09:08:03.380Z,14.60
2022-12-25T09:10:29.992Z,13.30
2022-12-25T09:12:56.482Z,13.70
2022-12-25T09:15:22.874Z,12.80
2022-12-25T09:17:49.278Z,14.40
2022-12-25T09:20:15.668Z,12.80
2022-12-25T09:22:42.125Z,14.50
2022-12-25T09:25:09.016Z,13.10
2022-12-25T09:27:35.614Z,13.40
2022-12-25T09:30:03.387Z,14.00
2022-12-25T09:32:29.890Z,16.30
2022-12-25T09:34:56.249Z,14.00
2022-12-25T09:37:22.604Z,13.00
2022-12-25T09:39:49.006Z,12.00
2022-12-25T09:42:24.066Z,12.70
2022-12-25T09:44:56.721Z,11.20
2022-12-25T09:47:27.789Z,11.10
2022-12-25T09:49:57.202Z,10.30
2022-12-25T09:52:30.287Z,13.70
2022-12-25T09:55:02.514Z,13.90
2022-12-25T09:57:29.204Z,13.20
2022-12-25T09:59:56.125Z,11.50
2022-12-25T10:02:37.909Z,14.80
2022-12-25T10:05:16.410Z,15.60
2022-12-25T10:08:16.994Z,16.50
2022-12-25T10:10:43.439Z,12.40
2022-12-25T10:13:47.461Z,14.50
2022-12-25T10:16:44.911Z,13.70
2022-12-25T10:19:29.791Z,15.10
2022-12-25T10:22:01.313Z,11.50
2022-12-25T10:24:44.469Z,12.20
2022-12-25T10:27:19.123Z,14.30
2022-12-25T10:29:49.841Z,10.60
2022-12-25T10:32:17.477Z,12.00
2022-12-25T10:34:47.029Z,8.50
2022-12-25T10:37:13.547Z,12.60
2022-12-25T10:39:46.303Z,9.30
2022-12-25T10:42:42.750Z,9.50
2022-12-25T10:45:12.557Z,8.20
2022-12-25T10:47:42.837Z,11.10
2022-12-25T10:50:18.032Z,9.50
2022-12-25T10:53:04.891Z,16.80
2022-12-25T10:55:32.879Z,12.70
2022-12-25T10:58:02.808Z,8.30
2022-12-25T11:00:32.418Z,10.80
2022-12-25T11:03:00.169Z,10.50
2022-12-25T11:05:31.876Z,10.30
2022-12-25T11:08:00.887Z,11.40
2022-12-25T11:10:32.760Z,9.60
2022-12-25T11:13:01.425Z,8.60
2022-12-25T11:15:33.714Z,9.40
2022-12-25T11:18:00.680Z,10.70
2022-12-25T11:20:30.684Z,12.30
2022-12-25T11:22:57.467Z,9.40
2022-12-25T11:25:28.395Z,14.00
2022-12-25T11:28:07.071Z,12.80
2022-12-25T11:30:35.115Z,17.50
2022-12-25T11:33:10.251Z,17.10
2022-12-25T11:36:06.225Z,9.90
2022-12-25T11:38:32.720Z,12.30
2022-12-25T11:41:02.638Z,10.10
2022-12-25T11:43:44.459Z,10.10
2022-12-25T11:46:39.124Z,10.70
2022-12-25T11:49:10.920Z,12.00
2022-12-25T11:51:41.730Z,12.60
2022-12-25T11:54:33.715Z,10.40
2022-12-25T11:57:04.512Z,9.40
2022-12-25T11:59:38.318Z,8.30
2022-12-25T12:02:36.155Z,10.40
2022-12-25T12:05:22.394Z,9.10
2022-12-25T12:07:57.277Z,10.60
2022-12-25T12:10:32.755Z,10.00
2022-12-25T12:13:44.028Z,9.90
2022-12-25T12:16:10.661Z,8.50
2022-12-25T12:18:37.282Z,7.40
2022-12-25T12:21:21.296Z,9.90
2022-12-25T12:24:01.857Z,10.80
2022-12-25T12:26:32.460Z,10.10
2022-12-25T12:29:01.350Z,9.90
2022-12-25T12:31:59.913Z,9.20
2022-12-25T12:34:30.546Z,9.10
2022-12-25T12:37:04.026Z,10.80
2022-12-25T12:39:36.495Z,10.10
2022-12-25T12:42:13.834Z,8.70
2022-12-25T12:44:40.514Z,9.00
2022-12-25T12:47:26.369Z,8.80
2022-12-25T12:50:01.476Z,10.80
2022-12-25T12:52:35.580Z,11.30
2022-12-25T12:55:13.725Z,9.70
2022-12-25T12:57:41.061Z,11.70
2022-12-25T13:00:15.961Z,9.00
2022-12-25T13:02:48.442Z,11.50
2022-12-25T13:05:34.658Z,11.20
2022-12-25T13:08:14.331Z,15.90
2022-12-25T13:10:46.673Z,12.30
2022-12-25T13:13:24.628Z,12.80
2022-12-25T13:15:52.188Z,13.60
2022-12-25T13:18:18.773Z,11.40
2022-12-25T13:20:54.835Z,10.60
2022-12-25T13:23:24.419Z,9.80
2022-12-25T13:26:12.743Z,9.00
2022-12-25T13:28:39.143Z,8.40
2022-12-25T13:31:11.883Z,11.30
2022-12-25T13:33:39.036Z,11.80
2022-12-25T13:36:11.296Z,10.00
2022-12-25T13:38:42.549Z,7.70
2022-12-25T13:41:27.518Z,9.70
2022-12-25T13:43:58.361Z,11.70
2022-12-25T13:46:27.458Z,9.60
2022-12-25T13:49:00.201Z,7.80
2022-12-25T13:51:28.356Z,9.30
2022-12-25T13:54:05.883Z,10.20
2022-12-25T13:56:34.298Z,9.60
2022-12-25T13:59:00.823Z,7.30
2022-12-25T14:01:28.633Z,7.30
2022-12-25T14:03:55.348Z,8.00
2022-12-25T14:06:25.614Z,9.80
2022-12-25T14:08:54.500Z,9.20
2022-12-25T14:11:23.183Z,9.60
2022-12-25T14:13:52.874Z,10.70
2022-12-25T14:16:21.063Z,10.00
2022-12-25T14:18:59.679Z,7.80
2022-12-25T14:21:40.953Z,11.00
2022-12-25T14:24:27.475Z,9.20
2022-12-25T14:27:00.538Z,10.40
2022-12-25T14:29:34.484Z,11.00
2022-12-25T14:32:04.992Z,9.30
2022-12-25T14:34:32.445Z,7.60
2022-12-25T14:36:59.985Z,8.60
2022-12-25T14:39:32.608Z,7.00
2022-12-25T14:42:00.047Z,9.10
2022-12-25T14:44:32.782Z,6.90
2022-12-25T14:47:05.126Z,7.00
2022-12-25T14:49:32.546Z,9.20
2022-12-25T14:51:59.196Z,8.60
2022-12-25T14:54:26.585Z,9.40
2022-12-25T14:56:55.985Z,10.80
2022-12-25T14:59:26.449Z,11.10
2022-12-25T15:01:59.187Z,6.90
2022-12-25T15:04:26.959Z,8.10
2022-12-25T15:07:07.181Z,9.50
2022-12-25T15:09:35.912Z,9.30
2022-12-25T15:12:02.414Z,8.00
2022-12-25T15:14:31.699Z,6.80
2022-12-25T15:17:00.897Z,9.50
2022-12-25T15:19:37.726Z,11.50
2022-12-25T15:22:05.129Z,9.20
2022-12-25T15:24:31.606Z,9.00
2022-12-25T15:27:00.170Z,9.40
2022-12-25T15:29:52.145Z,10.60
2022-12-25T15:32:18.956Z,11.50
2022-12-25T15:34:47.089Z,8.70
2022-12-25T15:37:14.306Z,10.30
2022-12-25T15:39:40.878Z,10.00
2022-12-25T15:42:21.505Z,10.20
2022-12-25T15:44:47.919Z,8.10
2022-12-25T15:47:16.287Z,11.10
2022-12-25T15:49:43.313Z,9.50
2022-12-25T15:52:15.303Z,9.70
2022-12-25T15:54:41.676Z,9.80
2022-12-25T15:57:17.174Z,9.40
2022-12-25T15:59:43.564Z,9.90
2022-12-25T16:02:21.284Z,8.10
2022-12-25T16:04:48.941Z,9.30
2022-12-25T16:07:19.551Z,10.00
2022-12-25T16:09:46.320Z,8.80
2022-12-25T16:12:13.010Z,6.60
2022-12-25T16:14:39.403Z,8.30
2022-12-25T16:17:05.952Z,9.80
2022-12-25T16:19:32.430Z,8.70
2022-12-25T16:21:58.888Z,9.30
2022-12-25T16:24:25.340Z,10.30
2022-12-25T16:26:51.713Z,8.60
2022-12-25T16:29:18.146Z,10.40
2022-12-25T16:31:44.605Z,15.70
2022-12-25T16:34:11.049Z,13.90
2022-12-25T16:36:37.520Z,15.50
2022-12-25T16:39:04.946Z,13.90
2022-12-25T16:41:32.268Z,12.00
2022-12-25T16:43:58.690Z,11.20
2022-12-25T16:46:25.170Z,11.50
2022-12-25T16:48:51.685Z,11.90
2022-12-25T16:51:20.485Z,16.70
2022-12-25T16:53:47.853Z,15.00
2022-12-25T16:56:17.074Z,14.40
2022-12-25T16:58:46.591Z,16.90
2022-12-25T17:01:16.147Z,14.00
2022-12-25T17:03:43.056Z,10.20
2022-12-25T17:06:28.314Z,11.10
2022-12-25T17:08:58.481Z,13.90
2022-12-25T17:11:29.548Z,11.30
2022-12-25T17:13:57.065Z,12.30
2022-12-25T17:16:27.189Z,10.50
2022-12-25T17:19:01.225Z,9.10
2022-12-25T17:21:29.203Z,7.90
2022-12-25T17:24:02.961Z,7.40
2022-12-25T17:26:31.122Z,9.40
2022-12-25T17:28:58.435Z,9.30
2022-12-25T17:31:24.940Z,9.10
2022-12-25T17:33:51.556Z,8.30
2022-12-25T17:36:20.120Z,9.30
2022-12-25T17:38:47.702Z,10.30
2022-12-25T17:41:15.900Z,8.40
2022-12-25T17:43:44.189Z,6.80
2022-12-25T17:46:22.162Z,9.80
2022-12-25T17:48:52.116Z,6.90
2022-12-25T17:51:21.982Z,5.30
2022-12-25T17:53:51.874Z,8.70
2022-12-25T17:56:19.805Z,8.50
2022-12-25T17:58:55.150Z,9.30
2022-12-25T18:01:23.560Z,9.70
2022-12-25T18:03:50.215Z,7.50
2022-12-25T18:06:20.802Z,7.80
2022-12-25T18:08:48.061Z,8.00
2022-12-25T18:11:17.651Z,6.90
2022-12-25T18:13:48.211Z,9.50
2022-12-25T18:16:14.811Z,10.50
2022-12-25T18:18:43.139Z,7.50
2022-12-25T18:21:14.315Z,8.20
2022-12-25T18:23:40.766Z,7.80
2022-12-25T18:26:08.924Z,6.80
2022-12-25T18:28:35.611Z,7.50
2022-12-25T18:31:02.168Z,7.00
2022-12-25T18:33:28.651Z,8.10
2022-12-25T18:36:00.137Z,6.20
2022-12-25T18:38:27.388Z,6.50
2022-12-25T18:40:54.423Z,7.30
2022-12-25T18:43:20.862Z,6.00
2022-12-25T18:46:07.507Z,7.30
2022-12-25T18:48:35.138Z,7.00
2022-12-25T18:51:05.562Z,6.90
2022-12-25T18:53:32.724Z,5.80
2022-12-25T18:56:07.317Z,7.00
2022-12-25T18:58:34.523Z,5.90
2022-12-25T19:01:01.108Z,6.90
2022-12-25T19:03:29.355Z,6.80
2022-12-25T19:05:55.752Z,5.80
2022-12-25T19:08:22.163Z,5.30
2022-12-25T19:10:48.524Z,8.10
2022-12-25T19:13:14.994Z,6.20
2022-12-25T19:15:43.333Z,6.70
2022-12-25T19:18:10.576Z,6.80
2022-12-25T19:20:41.176Z,7.00
2022-12-25T19:23:08.759Z,5.10
2022-12-25T19:25:35.216Z,5.00
2022-12-25T19:28:01.613Z,6.90
2022-12-25T19:30:27.997Z,6.60
2022-12-25T19:32:54.451Z,5.90
2022-12-25T19:35:20.873Z,5.80
2022-12-25T19:37:47.267Z,4.90
2022-12-25T19:40:13.656Z,7.00
2022-12-25T19:42:40.065Z,5.80
2022-12-25T19:45:06.905Z,7.20
2022-12-25T19:47:33.317Z,6.00
2022-12-25T19:50:03.145Z,6.40
2022-12-25T19:52:30.043Z,6.60
2022-12-25T19:54:56.519Z,6.40
2022-12-25T19:57:22.941Z,5.40
2022-12-25T19:59:49.705Z,6.10
2022-12-25T20:02:16.214Z,6.60
2022-12-25T20:04:44.985Z,5.90
2022-12-25T20:07:11.504Z,5.30
2022-12-25T20:09:37.888Z,7.00
2022-12-25T20:12:04.561Z,5.30
2022-12-25T20:14:30.963Z,6.00
2022-12-25T20:16:57.497Z,5.80
2022-12-25T20:19:24.388Z,7.50
2022-12-25T20:21:50.828Z,7.50
2022-12-25T20:24:17.343Z,6.20
2022-12-25T20:26:47.697Z,5.70
2022-12-25T20:29:14.389Z,9.80
2022-12-25T20:31:40.910Z,8.20
2022-12-25T20:34:10.816Z,8.00
2022-12-25T20:36:38.334Z,6.40
2022-12-25T20:39:10.856Z,8.30
2022-12-25T20:41:37.973Z,8.00
2022-12-25T20:44:06.411Z,7.70
2022-12-25T20:46:32.903Z,7.40
2022-12-25T20:49:01.669Z,6.10
2022-12-25T20:51:28.274Z,5.90
2022-12-25T20:53:55.294Z,6.80
2022-12-25T20:56:24.502Z,6.90
2022-12-25T20:58:59.549Z,9.10
2022-12-25T21:01:27.840Z,8.60
2022-12-25T21:03:55.448Z,6.70
2022-12-25T21:06:22.399Z,9.10
2022-12-25T21:08:49.168Z,6.80
2022-12-25T21:11:16.749Z,8.20
2022-12-25T21:13:45.206Z,7.40
2022-12-25T21:16:15.701Z,8.70
2022-12-25T21:18:42.684Z,8.60
2022-12-25T21:21:09.136Z,7.50
2022-12-25T21:23:37.986Z,7.80
2022-12-25T21:26:18.923Z,9.60
2022-12-25T21:28:49.506Z,7.50
2022-12-25T21:31:16.919Z,9.00
2022-12-25T21:33:52.738Z,8.20
2022-12-25T21:36:29.931Z,7.30
2022-12-25T21:38:58.856Z,6.70
2022-12-25T21:41:27.079Z,9.00
2022-12-25T21:43:54.143Z,9.60
2022-12-25T21:46:21.168Z,9.20
2022-12-25T21:48:47.840Z,9.00
2022-12-25T21:51:34.762Z,9.20
2022-12-25T21:54:03.769Z,7.90
2022-12-25T21:56:32.035Z,8.20
2022-12-25T21:59:00.294Z,8.50
2022-12-25T22:01:27.765Z,8.30
2022-12-25T22:03:54.316Z,9.50
2022-12-25T22:06:39.410Z,8.60
2022-12-25T22:09:13.795Z,7.10
2022-12-25T22:11:58.795Z,7.20
2022-12-25T22:14:51.058Z,8.60
2022-12-25T22:17:41.415Z,7.80
2022-12-25T22:20:10.682Z,7.60
2022-12-25T22:22:37.141Z,8.60
2022-12-25T22:25:08.923Z,7.50
2022-12-25T22:27:37.895Z,8.80
2022-12-25T22:30:13.463Z,9.40
2022-12-25T22:32:40.192Z,10.00
2022-12-25T22:35:07.008Z,9.50
2022-12-25T22:37:33.597Z,8.80
2022-12-25T22:40:02.162Z,8.90
2022-12-25T22:42:28.853Z,9.00
2022-12-25T22:44:55.243Z,11.30
2022-12-25T22:47:21.810Z,8.80
2022-12-25T22:49:48.921Z,8.60
2022-12-25T22:52:15.554Z,10.90
2022-12-25T22:54:42.086Z,10.60
2022-12-25T22:57:08.490Z,9.30
2022-12-25T22:59:35.035Z,8.90
2022-12-25T23:02:01.542Z,10.30
2022-12-25T23:04:29.080Z,8.60
2022-12-25T23:06:55.779Z,10.10
2022-12-25T23:09:27.488Z,9.20
2022-12-25T23:11:58.355Z,8.80
2022-12-25T23:14:41.624Z,10.10
2022-12-25T23:17:31.545Z,9.80
2022-12-25T23:20:18.795Z,7.00
2022-12-25T23:23:05.027Z,8.20
2022-12-25T23:25:50.521Z,7.90
2022-12-25T23:28:39.853Z,8.70
2022-12-25T23:31:06.705Z,7.50
2022-12-25T23:33:33.203Z,7.10
2022-12-25T23:35:59.595Z,8.40
2022-12-25T23:38:26.026Z,8.50
2022-12-25T23:40:52.750Z,7.60
2022-12-25T23:43:19.497Z,7.00
2022-12-25T23:45:45.885Z,7.70
2022-12-25T23:48:12.420Z,7.40
2022-12-25T23:50:39.079Z,7.70
2022-12-25T23:53:05.471Z,6.90
2022-12-25T23:55:33.417Z,5.30
2022-12-25T23:57:59.813Z,6.10
